createdAt,value
2018-05-09T00:01:01.781Z,13.00
2018-05-09T00:03:30.313Z,13.00
2018-05-09T00:05:58.860Z,13.00
2018-05-09T00:08:27.397Z,13.00
2018-05-09T00:10:55.941Z,13.00
2018-05-09T00:13:24.461Z,12.90
2018-05-09T00:15:53.766Z,12.90
2018-05-09T00:18:23.043Z,12.80
2018-05-09T00:20:51.589Z,12.80
2018-05-09T00:23:20.101Z,12.80
2018-05-09T00:25:48.866Z,12.70
2018-05-09T00:28:17.385Z,12.70
2018-05-09T00:30:45.964Z,12.70
2018-05-09T00:33:14.493Z,12.70
2018-05-09T00:35:43.037Z,12.70
2018-05-09T00:38:11.584Z,12.60
2018-05-09T00:40:40.088Z,12.60
2018-05-09T00:43:08.630Z,12.60
2018-05-09T00:45:37.196Z,12.60
2018-05-09T00:48:05.708Z,12.50
2018-05-09T00:50:34.256Z,12.50
2018-05-09T00:53:03.568Z,12.40
2018-05-09T00:55:32.109Z,12.40
2018-05-09T00:58:00.640Z,12.30
2018-05-09T01:00:30.033Z,12.30
2018-05-09T01:02:58.537Z,12.30
2018-05-09T01:05:27.083Z,12.30
2018-05-09T01:07:55.620Z,12.30
2018-05-09T01:10:24.132Z,12.20
2018-05-09T01:12:53.475Z,12.10
2018-05-09T01:15:22.004Z,12.10
2018-05-09T01:17:50.549Z,12.10
2018-05-09T01:20:19.088Z,12.20
2018-05-09T01:22:47.697Z,12.20
2018-05-09T01:25:16.205Z,12.20
2018-05-09T01:27:44.743Z,12.20
2018-05-09T01:30:14.041Z,12.20
2018-05-09T01:32:43.464Z,12.10
2018-05-09T01:35:12.005Z,12.00
2018-05-09T01:37:40.513Z,12.00
2018-05-09T01:40:09.813Z,12.00
2018-05-09T01:42:39.088Z,11.90
2018-05-09T01:45:07.661Z,12.00
2018-05-09T01:47:36.166Z,12.00
2018-05-09T01:50:04.484Z,11.90
2018-05-09T01:52:33.053Z,11.90
2018-05-09T01:55:01.713Z,11.90
2018-05-09T01:57:30.308Z,11.90
2018-05-09T01:59:59.576Z,11.90
2018-05-09T02:02:28.136Z,11.90
2018-05-09T02:04:56.641Z,11.90
2018-05-09T02:07:25.178Z,11.90
2018-05-09T02:09:53.867Z,11.90
2018-05-09T02:12:22.385Z,11.80
2018-05-09T02:14:50.615Z,11.80
2018-05-09T02:17:18.987Z,11.80
2018-05-09T02:19:47.519Z,11.80
2018-05-09T02:22:16.024Z,11.70
2018-05-09T02:24:45.324Z,11.70
2018-05-09T02:27:13.870Z,11.70
2018-05-09T02:29:42.389Z,11.70
2018-05-09T02:32:10.921Z,11.60
2018-05-09T02:34:39.508Z,11.60
2018-05-09T02:37:08.052Z,11.60
2018-05-09T02:39:36.569Z,11.60
2018-05-09T02:42:04.793Z,11.60
2018-05-09T02:44:33.334Z,11.60
2018-05-09T02:47:01.859Z,11.60
2018-05-09T02:49:30.417Z,11.50
2018-05-09T02:51:59.725Z,11.50
2018-05-09T02:54:28.263Z,11.50
2018-05-09T02:56:56.797Z,11.50
2018-05-09T02:59:25.332Z,11.40
2018-05-09T03:01:53.692Z,11.40
2018-05-09T03:04:22.201Z,11.30
2018-05-09T03:06:51.511Z,11.20
2018-05-09T03:09:20.033Z,11.20
2018-05-09T03:11:49.331Z,11.10
2018-05-09T03:14:17.841Z,11.10
2018-05-09T03:16:46.374Z,11.10
2018-05-09T03:19:14.894Z,11.10
2018-05-09T03:21:43.448Z,11.10
2018-05-09T03:24:11.952Z,11.10
2018-05-09T03:26:40.488Z,11.10
2018-05-09T03:29:09.024Z,11.10
2018-05-09T03:31:37.553Z,11.10
2018-05-09T03:34:06.092Z,11.10
2018-05-09T03:36:34.595Z,11.00
2018-05-09T03:39:03.144Z,11.00
2018-05-09T03:41:32.420Z,10.90
2018-05-09T03:44:00.959Z,10.90
2018-05-09T03:46:29.560Z,10.80
2018-05-09T03:48:58.109Z,10.90
2018-05-09T03:51:26.649Z,10.90
2018-05-09T03:53:54.956Z,11.00
2018-05-09T03:56:23.492Z,11.00
2018-05-09T03:58:52.621Z,10.90
2018-05-09T04:01:22.102Z,10.90
2018-05-09T04:04:01.645Z,10.90
2018-05-09T04:06:41.317Z,10.90
2018-05-09T04:09:21.104Z,10.90
2018-05-09T04:11:49.649Z,10.90
2018-05-09T04:14:18.960Z,10.90
2018-05-09T04:16:47.550Z,10.90
2018-05-09T04:19:16.094Z,10.90
2018-05-09T04:21:44.613Z,10.90
2018-05-09T04:24:13.159Z,10.90
2018-05-09T04:26:41.685Z,10.90
2018-05-09T04:29:11.046Z,11.00
2018-05-09T04:31:39.559Z,11.00
2018-05-09T04:34:08.104Z,11.00
2018-05-09T04:36:36.644Z,11.00
2018-05-09T04:39:04.525Z,11.00
2018-05-09T04:41:33.060Z,11.00
2018-05-09T04:44:01.616Z,11.10
2018-05-09T04:46:30.170Z,11.10
2018-05-09T04:48:58.797Z,11.10
2018-05-09T04:51:27.502Z,11.10
2018-05-09T04:53:56.073Z,11.20
2018-05-09T04:56:25.368Z,11.40
2018-05-09T04:58:54.677Z,11.70
2018-05-09T05:01:24.209Z,11.60
2018-05-09T05:03:52.720Z,11.90
2018-05-09T05:06:21.292Z,12.10
2018-05-09T05:08:49.881Z,12.30
2018-05-09T05:11:18.490Z,12.50
2018-05-09T05:13:47.081Z,12.60
2018-05-09T05:16:16.462Z,12.90
2018-05-09T05:18:45.065Z,12.90
2018-05-09T05:21:13.645Z,13.10
2018-05-09T05:23:42.244Z,13.40
2018-05-09T05:26:11.636Z,13.70
2018-05-09T05:28:40.204Z,13.70
2018-05-09T05:31:08.794Z,13.90
2018-05-09T05:33:37.362Z,14.10
2018-05-09T05:36:05.970Z,14.30
2018-05-09T05:38:35.380Z,14.50
2018-05-09T05:41:04.685Z,14.70
2018-05-09T05:43:33.305Z,14.60
2018-05-09T05:46:01.885Z,14.70
2018-05-09T05:48:30.515Z,14.90
2018-05-09T05:50:59.104Z,15.10
2018-05-09T05:53:27.706Z,15.30
2018-05-09T05:55:57.171Z,15.50
2018-05-09T05:58:25.833Z,15.40
2018-05-09T06:00:54.445Z,15.60
2018-05-09T06:03:23.070Z,15.80
2018-05-09T06:05:51.653Z,15.90
2018-05-09T06:08:20.240Z,16.10
2018-05-09T06:10:48.817Z,16.20
2018-05-09T06:13:17.413Z,16.30
2018-05-09T06:15:45.997Z,16.60
2018-05-09T06:18:14.579Z,16.80
2018-05-09T06:20:43.157Z,17.00
2018-05-09T06:23:11.449Z,17.00
2018-05-09T06:25:40.050Z,17.10
2018-05-09T06:28:08.668Z,17.50
2018-05-09T06:30:37.253Z,17.90
2018-05-09T06:33:05.834Z,18.00
2018-05-09T06:35:34.422Z,18.00
2018-05-09T06:38:02.965Z,18.00
2018-05-09T06:40:31.584Z,18.10
2018-05-09T06:43:00.152Z,18.20
2018-05-09T06:45:28.724Z,18.30
2018-05-09T06:47:57.345Z,18.30
2018-05-09T06:50:26.693Z,18.70
2018-05-09T06:52:55.301Z,18.70
2018-05-09T06:55:23.903Z,18.60
2018-05-09T06:57:52.485Z,18.80
2018-05-09T07:00:21.129Z,18.90
2018-05-09T07:02:49.686Z,19.10
2018-05-09T07:05:18.450Z,19.20
2018-05-09T07:07:47.048Z,19.30
2018-05-09T07:10:15.600Z,19.50
2018-05-09T07:12:44.177Z,19.50
2018-05-09T07:15:12.734Z,19.30
2018-05-09T07:17:41.332Z,19.10
2018-05-09T07:20:09.916Z,19.00
2018-05-09T07:22:38.456Z,19.10
2018-05-09T07:25:07.059Z,19.10
2018-05-09T07:27:35.647Z,19.20
2018-05-09T07:30:03.958Z,19.30
2018-05-09T07:32:33.189Z,19.70
2018-05-09T07:35:01.753Z,20.20
2018-05-09T07:37:30.301Z,20.80
2018-05-09T07:39:58.906Z,21.00
2018-05-09T07:42:27.489Z,21.10
2018-05-09T07:44:56.098Z,21.10
2018-05-09T07:47:24.717Z,21.30
2018-05-09T07:49:53.325Z,21.80
2018-05-09T07:52:21.889Z,22.10
2018-05-09T07:54:52.454Z,22.50
2018-05-09T07:57:21.031Z,22.90
2018-05-09T07:59:49.593Z,23.20
2018-05-09T08:02:18.155Z,23.00
2018-05-09T08:04:46.689Z,23.00
2018-05-09T08:07:15.279Z,23.50
2018-05-09T08:09:43.877Z,23.40
2018-05-09T08:12:12.434Z,23.50
2018-05-09T08:14:41.026Z,23.60
2018-05-09T08:17:09.584Z,23.80
2018-05-09T08:19:38.157Z,23.60
2018-05-09T08:22:06.769Z,23.50
2018-05-09T08:24:35.345Z,23.60
2018-05-09T08:27:03.913Z,23.70
2018-05-09T08:29:32.466Z,23.60
2018-05-09T08:32:01.074Z,23.80
2018-05-09T08:34:29.677Z,23.90
2018-05-09T08:36:58.246Z,23.70
2018-05-09T08:39:26.829Z,23.90
2018-05-09T08:41:55.078Z,24.10
2018-05-09T08:44:23.674Z,24.40
2018-05-09T08:46:52.258Z,24.60
2018-05-09T08:49:20.851Z,24.70
2018-05-09T08:51:49.623Z,24.50
2018-05-09T08:54:18.214Z,24.70
2018-05-09T08:56:46.793Z,24.70
2018-05-09T08:59:15.356Z,24.70
2018-05-09T09:01:43.942Z,24.70
2018-05-09T09:04:13.363Z,25.10
2018-05-09T09:06:42.080Z,25.10
2018-05-09T09:09:10.660Z,25.60
2018-05-09T09:11:39.261Z,25.40
2018-05-09T09:41:34.144Z,25.90
2018-05-09T09:44:02.817Z,25.70
2018-05-09T09:49:00.988Z,25.70
2018-05-09T09:51:29.609Z,25.60
2018-05-09T09:53:58.198Z,25.30
2018-05-09T09:56:26.745Z,25.40
2018-05-09T10:08:54.282Z,26.20
2018-05-09T10:11:22.950Z,26.20
2018-05-09T10:13:51.547Z,25.90
2018-05-09T10:21:19.549Z,26.90
2018-05-09T10:23:48.144Z,26.30
2018-05-09T10:26:16.727Z,26.40
2018-05-09T10:41:13.156Z,27.40
2018-05-09T10:43:41.791Z,27.30
2018-05-09T10:46:10.370Z,27.50
2018-05-09T10:48:38.972Z,27.10
2018-05-09T10:51:07.525Z,27.30
2018-05-09T10:53:36.116Z,27.00
2018-05-09T10:56:04.687Z,27.10
2018-05-09T10:58:34.069Z,27.20
2018-05-09T11:01:02.665Z,27.20
2018-05-09T11:03:31.258Z,28.70
2018-05-09T11:05:59.839Z,30.40
2018-05-09T11:08:29.174Z,28.90
2018-05-09T11:10:57.709Z,28.90
2018-05-09T11:13:26.293Z,29.10
2018-05-09T11:15:54.671Z,30.20
2018-05-09T11:28:21.681Z,29.40
2018-05-09T11:30:50.293Z,28.90
2018-05-09T11:33:18.934Z,28.60
2018-05-09T11:35:47.530Z,29.40
2018-05-09T11:38:16.116Z,30.10
2018-05-09T11:40:44.708Z,30.70
2018-05-09T11:43:14.031Z,29.90
2018-05-09T11:45:42.657Z,29.80
2018-05-09T11:48:11.233Z,29.60
2018-05-09T11:50:39.818Z,28.80
2018-05-09T11:53:08.440Z,28.10
2018-05-09T11:55:37.201Z,30.10
2018-05-09T11:58:05.819Z,31.90
2018-05-09T12:00:35.230Z,34.90
2018-05-09T12:03:03.933Z,34.80
2018-05-09T12:05:32.526Z,34.70
2018-05-09T12:08:01.160Z,34.60
2018-05-09T12:10:29.875Z,31.90
2018-05-09T12:12:58.571Z,33.20
2018-05-09T12:15:27.157Z,34.30
2018-05-09T12:17:55.521Z,35.30
2018-05-09T12:20:24.872Z,36.00
2018-05-09T12:22:53.479Z,36.00
2018-05-09T12:25:22.048Z,36.30
2018-05-09T12:27:50.632Z,35.90
2018-05-09T12:30:19.215Z,35.20
2018-05-09T12:32:47.833Z,34.80
2018-05-09T12:35:16.436Z,34.40
2018-05-09T12:37:45.000Z,32.90
2018-05-09T12:40:13.601Z,31.90
2018-05-09T12:42:42.147Z,30.30
2018-05-09T12:45:10.741Z,31.10
2018-05-09T12:47:39.039Z,32.50
2018-05-09T12:50:07.813Z,33.80
2018-05-09T12:52:37.346Z,32.50
2018-05-09T12:55:05.941Z,31.10
2018-05-09T12:57:34.510Z,30.20
2018-05-09T13:00:03.077Z,30.20
2018-05-09T13:02:32.454Z,35.20
2018-05-09T13:05:01.039Z,35.10
2018-05-09T13:07:29.666Z,36.50
2018-05-09T15:49:58.385Z,30.90
2018-05-09T15:52:27.744Z,30.20
2018-05-09T15:54:56.397Z,30.10
2018-05-09T15:57:24.949Z,29.90
2018-05-09T15:59:53.557Z,30.00
2018-05-09T16:02:22.868Z,29.80
2018-05-09T16:04:51.502Z,29.80
2018-05-09T16:07:20.269Z,29.60
2018-05-09T16:09:48.888Z,29.50
2018-05-09T16:12:17.462Z,29.40
2018-05-09T16:14:46.257Z,29.20
2018-05-09T16:17:14.862Z,29.00
2018-05-09T16:19:44.209Z,28.50
2018-05-09T16:22:12.827Z,28.50
2018-05-09T16:24:41.385Z,28.60
2018-05-09T16:27:10.000Z,28.60
2018-05-09T16:29:38.606Z,28.50
2018-05-09T16:32:07.223Z,28.40
2018-05-09T16:34:35.777Z,28.10
2018-05-09T16:37:04.126Z,28.20
2018-05-09T16:39:33.200Z,28.20
2018-05-09T16:42:01.884Z,28.20
2018-05-09T16:44:30.464Z,28.10
2018-05-09T16:46:59.068Z,28.20
2018-05-09T16:49:27.659Z,28.20
2018-05-09T16:51:56.348Z,27.90
2018-05-09T16:54:24.930Z,27.90
2018-05-09T16:56:54.437Z,27.80
2018-05-09T16:59:22.998Z,27.80
2018-05-09T17:01:51.618Z,27.80
2018-05-09T17:04:20.222Z,27.70
2018-05-09T17:06:48.829Z,27.50
2018-05-09T17:09:17.421Z,27.40
2018-05-09T17:11:46.130Z,27.30
2018-05-09T17:14:14.853Z,27.20
2018-05-09T17:16:43.441Z,27.20
2018-05-09T17:19:12.065Z,27.10
2018-05-09T17:21:51.734Z,26.90
2018-05-09T17:24:20.369Z,26.70
2018-05-09T17:26:48.977Z,26.50
2018-05-09T17:29:17.579Z,26.40
2018-05-09T17:31:46.198Z,26.30
2018-05-09T17:34:14.820Z,26.10
2018-05-09T17:36:43.416Z,26.00
2018-05-09T17:39:11.984Z,25.90
2018-05-09T17:41:40.592Z,25.80
2018-05-09T17:44:09.182Z,25.60
2018-05-09T17:46:37.751Z,25.40
2018-05-09T17:49:06.327Z,25.20
2018-05-09T17:51:34.937Z,25.10
2018-05-09T17:54:03.506Z,24.80
2018-05-09T17:56:32.125Z,24.60
2018-05-09T17:59:01.536Z,24.50
2018-05-09T18:01:30.288Z,24.50
2018-05-09T18:03:58.933Z,24.40
2018-05-09T18:06:27.699Z,24.30
2018-05-09T18:08:57.054Z,23.90
2018-05-09T18:11:25.657Z,23.90
2018-05-09T18:13:54.221Z,23.80
2018-05-09T18:16:22.794Z,23.90
2018-05-09T18:18:51.401Z,23.90
2018-05-09T18:21:19.983Z,23.80
2018-05-09T18:23:48.529Z,23.70
2018-05-09T18:26:17.112Z,23.50
2018-05-09T18:28:46.417Z,23.10
2018-05-09T18:31:14.981Z,23.10
2018-05-09T18:33:43.574Z,23.00
2018-05-09T18:36:12.179Z,22.80
2018-05-09T18:38:40.754Z,22.60
2018-05-09T18:41:13.521Z,22.30
2018-05-09T18:43:42.136Z,22.10
2018-05-09T18:46:10.739Z,21.90
2018-05-09T18:48:39.485Z,21.80
2018-05-09T18:51:08.101Z,21.60
2018-05-09T18:53:36.734Z,21.30
2018-05-09T18:56:05.428Z,21.20
2018-05-09T18:58:33.957Z,21.10
2018-05-09T19:01:02.362Z,21.00
2018-05-09T19:03:30.941Z,21.10
2018-05-09T19:05:59.514Z,21.10
2018-05-09T19:08:28.045Z,21.30
2018-05-09T19:10:56.641Z,21.30
2018-05-09T19:13:25.200Z,21.30
2018-05-09T19:15:53.540Z,21.40
2018-05-09T19:18:22.117Z,21.40
2018-05-09T19:20:50.793Z,21.50
2018-05-09T19:23:19.098Z,21.50
2018-05-09T19:25:47.705Z,21.50
2018-05-09T19:28:16.299Z,21.60
2018-05-09T19:30:44.994Z,21.60
2018-05-09T19:33:13.879Z,21.50
2018-05-09T19:35:42.469Z,21.50
2018-05-09T19:38:11.082Z,21.50
2018-05-09T19:40:39.666Z,21.50
2018-05-09T19:43:08.302Z,21.40
2018-05-09T19:45:36.869Z,21.40
2018-05-09T19:48:06.229Z,21.30
2018-05-09T19:50:34.919Z,21.30
2018-05-09T19:53:03.506Z,21.10
2018-05-09T19:55:32.116Z,20.90
2018-05-09T19:58:00.702Z,20.60
2018-05-09T20:00:29.347Z,20.30
2018-05-09T20:02:58.207Z,20.00
2018-05-09T20:05:27.705Z,19.40
2018-05-09T20:07:56.290Z,19.40
2018-05-09T20:10:24.825Z,19.30
2018-05-09T20:12:53.437Z,19.30
2018-05-09T20:15:22.783Z,19.00
2018-05-09T20:17:51.405Z,19.00
2018-05-09T20:20:19.973Z,18.90
2018-05-09T20:22:48.643Z,18.80
2018-05-09T20:25:17.348Z,18.80
2018-05-09T20:27:45.971Z,18.80
2018-05-09T20:30:20.696Z,19.00
2018-05-09T20:32:50.065Z,19.10
2018-05-09T20:35:18.638Z,19.10
2018-05-09T20:37:47.245Z,19.10
2018-05-09T20:40:15.854Z,19.00
2018-05-09T20:42:45.177Z,19.00
2018-05-09T20:45:13.789Z,19.00
2018-05-09T20:47:42.396Z,19.00
2018-05-09T20:50:11.187Z,19.00
2018-05-09T20:52:39.752Z,19.00
2018-05-09T20:58:14.133Z,19.10
2018-05-09T21:00:42.686Z,19.10
2018-05-09T21:03:10.926Z,19.10
2018-05-09T21:05:39.481Z,19.00
2018-05-09T21:08:08.051Z,18.90
2018-05-09T21:10:37.331Z,18.70
2018-05-09T21:13:05.917Z,18.70
2018-05-09T21:15:34.430Z,18.70
2018-05-09T21:18:04.017Z,18.50
2018-05-09T21:20:33.288Z,18.40
2018-05-09T21:23:01.836Z,18.40
2018-05-09T21:25:30.421Z,18.40
2018-05-09T21:27:58.651Z,18.30
2018-05-09T21:30:27.196Z,18.40
2018-05-09T21:32:55.712Z,18.50
2018-05-09T21:35:25.055Z,18.70
2018-05-09T21:37:53.770Z,18.70
2018-05-09T21:40:22.308Z,18.70
2018-05-09T21:42:51.584Z,18.80
2018-05-09T21:45:20.124Z,18.80
2018-05-09T21:47:49.650Z,18.80
2018-05-09T21:50:18.085Z,18.80
2018-05-09T21:52:46.728Z,18.80
2018-05-09T21:55:15.245Z,18.80
2018-05-09T21:57:43.820Z,18.70
2018-05-09T22:00:13.099Z,18.70
2018-05-09T22:02:41.685Z,18.70
2018-05-09T22:05:10.995Z,18.70
2018-05-09T22:07:40.303Z,18.80
2018-05-09T22:10:09.631Z,18.70
2018-05-09T22:12:38.140Z,18.70
2018-05-09T22:15:06.700Z,18.70
2018-05-09T22:17:35.204Z,18.70
2018-05-09T22:20:03.438Z,18.70
2018-05-09T22:22:31.947Z,18.70
2018-05-09T22:25:00.492Z,18.70
2018-05-09T22:27:29.979Z,18.70
2018-05-09T22:29:58.560Z,18.60
2018-05-09T22:32:27.069Z,18.60
2018-05-09T22:34:55.630Z,18.60
2018-05-09T22:37:23.981Z,18.60
2018-05-09T22:39:54.556Z,18.60
2018-05-09T22:42:23.862Z,18.50
2018-05-09T22:44:52.372Z,18.50
2018-05-09T22:47:20.915Z,18.50
2018-05-09T22:49:49.446Z,18.60
2018-05-09T22:52:17.984Z,18.50
2018-05-09T22:54:47.260Z,18.50
2018-05-09T22:57:15.799Z,18.50
2018-05-09T22:59:44.344Z,18.50
2018-05-09T23:02:13.621Z,18.40
2018-05-09T23:04:42.160Z,18.30
2018-05-09T23:07:10.669Z,18.30
2018-05-09T23:09:39.204Z,18.30
2018-05-09T23:12:07.708Z,18.30
2018-05-09T23:14:36.256Z,18.10
2018-05-09T23:17:05.543Z,18.00
2018-05-09T23:19:34.851Z,18.00
2018-05-09T23:22:04.153Z,17.90
2018-05-09T23:24:32.466Z,17.90
2018-05-09T23:27:00.997Z,17.90
2018-05-09T23:29:29.732Z,17.90
2018-05-09T23:31:58.278Z,17.80
2018-05-09T23:34:27.556Z,17.70
2018-05-09T23:36:56.120Z,17.70
2018-05-09T23:39:24.629Z,17.60
2018-05-09T23:41:59.802Z,17.50
2018-05-09T23:44:28.353Z,17.40
2018-05-09T23:46:56.868Z,17.40
2018-05-09T23:49:25.408Z,17.40
2018-05-09T23:51:53.915Z,17.30
2018-05-09T23:54:22.455Z,17.30
2018-05-09T23:56:50.995Z,17.20
2018-05-09T23:59:20.103Z,17.10
